createdAt,value
2018-02-23T00:00:11.607Z,38.30
2018-02-23T00:02:38.506Z,39.33
2018-02-23T00:05:14.797Z,38.97
2018-02-23T00:07:46.515Z,37.47
2018-02-23T00:10:14.129Z,36.38
2018-02-23T00:12:41.010Z,36.50
2018-02-23T00:15:08.705Z,39.45
2018-02-23T00:17:35.533Z,33.72
2018-02-23T00:20:03.139Z,35.83
2018-02-23T00:22:40.060Z,36.75
2018-02-23T00:25:08.500Z,38.50
2018-02-23T00:27:35.377Z,35.40
2018-02-23T00:30:03.031Z,35.90
2018-02-23T00:32:29.894Z,37.20
2018-02-23T00:34:56.757Z,36.53
2018-02-23T00:37:23.598Z,39.20
2018-02-23T00:39:50.480Z,35.13
2018-02-23T00:42:19.889Z,35.10
2018-02-23T00:44:46.715Z,39.90
2018-02-23T00:47:13.599Z,36.92
2018-02-23T00:49:40.418Z,34.85
2018-02-23T00:52:07.267Z,35.15
2018-02-23T00:54:34.102Z,35.92
2018-02-23T00:57:00.957Z,37.30
2018-02-23T00:59:27.810Z,36.33
2018-02-23T01:01:54.637Z,36.45
2018-02-23T01:04:21.485Z,41.50
2018-02-23T01:06:48.374Z,38.10
2018-02-23T01:09:15.213Z,37.67
2018-02-23T01:11:42.092Z,35.80
2018-02-23T01:14:08.918Z,36.53
2018-02-23T01:16:35.847Z,38.28
2018-02-23T01:19:02.718Z,42.20
2018-02-23T01:21:29.554Z,42.30
2018-02-23T01:23:56.422Z,39.80
2018-02-23T01:26:23.363Z,39.92
2018-02-23T01:28:50.214Z,41.70
2018-02-23T01:31:17.074Z,37.08
2018-02-23T01:33:43.895Z,40.40
2018-02-23T01:36:10.850Z,42.33
2018-02-23T01:38:37.706Z,42.45
2018-02-23T01:41:04.539Z,40.08
2018-02-23T01:43:31.373Z,40.22
2018-02-23T01:45:58.242Z,34.95
2018-02-23T01:48:25.811Z,37.90
2018-02-23T01:50:59.490Z,39.92
2018-02-23T01:53:26.375Z,38.70
2018-02-23T01:55:53.295Z,41.10
2018-02-23T01:58:20.227Z,39.65
2018-02-23T02:00:49.321Z,43.95
2018-02-23T02:03:18.556Z,41.03
2018-02-23T02:05:46.190Z,42.33
2018-02-23T02:08:14.051Z,42.00
2018-02-23T02:10:40.923Z,43.85
2018-02-23T02:13:08.526Z,41.65
2018-02-23T02:15:35.643Z,44.50
2018-02-23T02:18:02.475Z,41.50
2018-02-23T02:20:29.322Z,43.50
2018-02-23T02:22:56.206Z,43.80
2018-02-23T02:25:23.134Z,44.67
2018-02-23T02:27:50.035Z,42.42
2018-02-23T02:30:17.651Z,40.47
2018-02-23T02:32:44.523Z,41.13
2018-02-23T02:35:12.210Z,40.75
2018-02-23T02:37:40.310Z,40.28
2018-02-23T02:40:07.406Z,39.65
2018-02-23T02:42:34.983Z,40.65
2018-02-23T02:45:01.857Z,37.63
2018-02-23T02:47:28.688Z,38.47
2018-02-23T02:49:55.515Z,39.90
2018-02-23T02:52:23.854Z,41.55
2018-02-23T02:54:50.714Z,36.58
2018-02-23T02:57:17.644Z,36.78
2018-02-23T02:59:44.649Z,37.30
2018-02-23T03:02:11.570Z,37.72
2018-02-23T03:04:38.490Z,36.78
2018-02-23T03:07:05.458Z,38.05
2018-02-23T03:09:34.161Z,33.92
2018-02-23T03:12:01.030Z,37.15
2018-02-23T03:14:27.823Z,35.25
2018-02-23T03:16:54.762Z,36.88
2018-02-23T03:19:21.571Z,37.92
2018-02-23T03:21:48.495Z,33.03
2018-02-23T03:24:15.381Z,33.47
2018-02-23T03:26:42.622Z,34.72
2018-02-23T03:29:09.590Z,37.10
2018-02-23T03:31:36.608Z,36.80
2018-02-23T03:34:05.518Z,34.67
2018-02-23T03:36:32.567Z,38.13
2018-02-23T03:38:59.386Z,39.38
2018-02-23T03:41:26.495Z,38.08
2018-02-23T03:43:53.391Z,40.95
2018-02-23T03:46:25.238Z,40.35
2018-02-23T03:48:52.140Z,41.67
2018-02-23T03:51:19.728Z,39.85
2018-02-23T03:53:46.542Z,39.53
2018-02-23T03:56:13.474Z,37.92
2018-02-23T03:58:40.294Z,38.80
2018-02-23T04:01:07.354Z,41.92
2018-02-23T04:03:35.027Z,43.95
2018-02-23T04:06:02.650Z,44.53
2018-02-23T04:08:29.506Z,44.60
2018-02-23T04:10:56.375Z,43.28
2018-02-23T04:13:23.498Z,39.65
2018-02-23T04:15:51.486Z,40.22
2018-02-23T04:18:19.607Z,42.20
2018-02-23T04:20:46.674Z,42.45
2018-02-23T04:23:14.290Z,42.25
2018-02-23T04:25:41.214Z,40.70
2018-02-23T04:28:08.811Z,40.10
2018-02-23T04:30:35.626Z,40.45
2018-02-23T04:33:03.378Z,38.75
2018-02-23T04:35:30.410Z,41.42
2018-02-23T04:37:57.291Z,39.20
2018-02-23T04:40:24.190Z,36.38
2018-02-23T04:42:51.030Z,37.45
2018-02-23T04:45:18.146Z,35.75
2018-02-23T04:47:45.139Z,36.58
2018-02-23T04:50:11.994Z,35.58
2018-02-23T04:52:39.586Z,37.08
2018-02-23T04:55:07.528Z,39.55
2018-02-23T04:57:35.142Z,41.00
2018-02-23T05:00:02.003Z,42.10
2018-02-23T05:02:28.901Z,40.95
2018-02-23T05:04:57.138Z,44.78
2018-02-23T05:07:25.018Z,46.90
2018-02-23T05:09:51.831Z,45.80
2018-02-23T05:12:18.666Z,45.38
2018-02-23T05:14:45.526Z,49.88
2018-02-23T05:17:13.190Z,48.85
2018-02-23T05:19:48.235Z,46.55
2018-02-23T05:22:17.767Z,47.30
2018-02-23T05:24:44.944Z,41.80
2018-02-23T05:27:12.870Z,43.13
2018-02-23T05:29:39.712Z,46.05
2018-02-23T05:32:06.643Z,43.60
2018-02-23T05:34:33.591Z,43.50
2018-02-23T05:37:00.555Z,44.25
2018-02-23T05:39:27.443Z,41.28
2018-02-23T05:41:54.358Z,42.67
2018-02-23T05:44:21.237Z,45.33
2018-02-23T05:46:48.288Z,42.28
2018-02-23T05:49:15.114Z,44.30
2018-02-23T05:51:41.926Z,43.42
2018-02-23T05:54:08.942Z,52.35
2018-02-23T05:56:36.787Z,49.58
2018-02-23T05:59:04.610Z,49.95
2018-02-23T06:01:31.697Z,46.55
2018-02-23T06:03:58.571Z,46.20
2018-02-23T06:06:26.256Z,47.10
2018-02-23T06:08:53.171Z,44.08
2018-02-23T06:11:20.070Z,44.20
2018-02-23T06:13:46.935Z,42.65
2018-02-23T06:16:19.975Z,45.67
2018-02-23T06:18:53.046Z,45.88
2018-02-23T06:21:19.969Z,45.92
2018-02-23T06:23:46.802Z,49.90
2018-02-23T06:26:13.744Z,47.45
2018-02-23T06:28:40.678Z,45.40
2018-02-23T06:31:08.496Z,53.25
2018-02-23T06:33:35.370Z,48.38
2018-02-23T06:36:02.419Z,50.20
2018-02-23T06:38:29.467Z,52.92
2018-02-23T06:40:57.166Z,50.70
2018-02-23T06:43:25.662Z,55.08
2018-02-23T06:45:52.652Z,54.00
2018-02-23T06:48:19.546Z,49.67
2018-02-23T06:50:46.425Z,48.50
2018-02-23T06:53:13.970Z,48.33
2018-02-23T06:55:40.894Z,46.80
2018-02-23T06:58:07.757Z,47.22
2018-02-23T07:00:35.317Z,50.45
2018-02-23T07:03:02.886Z,52.67
2018-02-23T07:05:29.876Z,47.78
2018-02-23T07:07:56.776Z,52.62
2018-02-23T07:10:23.754Z,47.13
2018-02-23T07:12:50.671Z,46.80
2018-02-23T07:15:17.667Z,49.10
2018-02-23T07:17:44.710Z,47.55
2018-02-23T07:20:11.712Z,46.47
2018-02-23T07:22:38.690Z,44.95
2018-02-23T07:25:05.547Z,47.00
2018-02-23T07:27:32.410Z,51.63
2018-02-23T07:29:59.325Z,52.45
2018-02-23T07:32:26.258Z,54.38
2018-02-23T07:34:53.114Z,55.38
2018-02-23T07:37:19.974Z,52.20
2018-02-23T07:39:46.834Z,51.30
2018-02-23T07:42:13.669Z,46.35
2018-02-23T07:44:40.581Z,43.08
2018-02-23T07:47:08.484Z,43.90
2018-02-23T07:49:36.800Z,42.17
2018-02-23T07:52:03.762Z,36.47
2018-02-23T07:54:30.621Z,34.92
2018-02-23T07:56:58.671Z,39.20
2018-02-23T07:59:25.572Z,39.53
2018-02-23T08:01:52.419Z,37.85
2018-02-23T08:04:20.257Z,33.28
2018-02-23T08:06:47.097Z,35.58
2018-02-23T08:09:13.922Z,35.80
2018-02-23T08:11:40.827Z,32.20
2018-02-23T08:14:07.721Z,29.63
2018-02-23T08:16:34.666Z,28.58
2018-02-23T08:19:01.522Z,28.08
2018-02-23T08:21:29.099Z,28.17
2018-02-23T08:23:55.966Z,25.08
2018-02-23T08:26:22.874Z,21.92
2018-02-23T08:28:49.730Z,23.85
2018-02-23T08:31:17.322Z,19.50
2018-02-23T08:33:44.160Z,19.12
2018-02-23T08:36:11.086Z,16.65
2018-02-23T08:38:37.922Z,18.60
2018-02-23T08:41:05.496Z,19.33
2018-02-23T08:43:32.698Z,17.83
2018-02-23T08:46:00.673Z,19.48
2018-02-23T08:48:27.690Z,20.75
2018-02-23T08:50:54.613Z,20.85
2018-02-23T08:53:21.470Z,18.65
2018-02-23T08:55:51.789Z,19.20
2018-02-23T08:58:18.707Z,18.70
2018-02-23T09:00:47.206Z,17.77
2018-02-23T09:03:14.085Z,17.58
2018-02-23T09:05:41.169Z,19.10
2018-02-23T09:08:08.782Z,19.05
2018-02-23T09:10:35.670Z,19.75
2018-02-23T09:13:02.556Z,18.37
2018-02-23T09:15:29.495Z,19.25
2018-02-23T09:17:56.450Z,18.25
2018-02-23T09:20:23.383Z,16.77
2018-02-23T09:22:50.330Z,20.65
2018-02-23T09:25:18.246Z,19.95
2018-02-23T09:27:45.225Z,18.65
2018-02-23T09:30:12.199Z,19.33
2018-02-23T09:32:39.915Z,20.62
2018-02-23T09:35:07.564Z,24.30
2018-02-23T09:37:34.524Z,19.73
2018-02-23T09:40:01.614Z,21.12
2018-02-23T09:42:28.483Z,23.90
2018-02-23T09:44:55.390Z,24.00
2018-02-23T09:47:22.586Z,24.63
2018-02-23T09:49:49.512Z,22.20
2018-02-23T09:52:16.347Z,26.00
2018-02-23T09:54:43.221Z,24.73
2018-02-23T09:57:10.047Z,24.55
2018-02-23T09:59:36.885Z,25.50
2018-02-23T10:02:03.890Z,25.05
2018-02-23T10:04:31.453Z,21.62
2018-02-23T10:06:58.354Z,22.70
2018-02-23T10:09:25.226Z,21.45
2018-02-23T10:11:52.781Z,22.73
2018-02-23T10:14:20.550Z,19.73
2018-02-23T10:16:47.544Z,16.30
2018-02-23T10:19:14.378Z,13.43
2018-02-23T10:21:41.206Z,13.02
2018-02-23T10:24:08.018Z,12.80
2018-02-23T10:26:35.101Z,12.37
2018-02-23T10:29:02.079Z,12.57
2018-02-23T10:31:28.935Z,13.90
2018-02-23T10:33:56.573Z,12.73
2018-02-23T10:36:23.464Z,14.50
2018-02-23T10:38:51.090Z,13.70
2018-02-23T10:41:18.068Z,14.13
2018-02-23T10:43:44.998Z,14.35
2018-02-23T10:46:12.097Z,12.88
2018-02-23T10:48:39.002Z,11.57
2018-02-23T10:51:05.872Z,12.37
2018-02-23T10:53:33.469Z,12.52
2018-02-23T10:56:00.376Z,13.35
2018-02-23T10:58:27.294Z,11.55
2018-02-23T11:00:54.150Z,12.73
2018-02-23T11:03:21.770Z,12.00
2018-02-23T11:05:48.771Z,13.55
2018-02-23T11:08:15.777Z,14.32
2018-02-23T11:10:42.706Z,13.80
2018-02-23T11:13:09.525Z,12.85
2018-02-23T11:15:36.507Z,12.85
2018-02-23T11:18:03.319Z,13.02
2018-02-23T11:20:30.242Z,13.02
2018-02-23T11:22:57.790Z,13.35
2018-02-23T11:25:26.430Z,13.35
2018-02-23T11:27:53.515Z,10.38
2018-02-23T11:30:21.226Z,11.90
2018-02-23T11:32:48.307Z,11.02
2018-02-23T11:35:15.343Z,12.07
2018-02-23T11:37:42.311Z,11.75
2018-02-23T11:40:09.226Z,11.70
2018-02-23T11:42:36.166Z,12.13
2018-02-23T11:45:03.078Z,10.18
2018-02-23T11:47:29.917Z,13.07
2018-02-23T11:49:56.886Z,12.18
2018-02-23T11:52:23.758Z,12.93
2018-02-23T11:54:50.835Z,11.93
2018-02-23T11:57:24.942Z,12.75
2018-02-23T11:59:52.537Z,11.57
2018-02-23T12:02:20.130Z,14.80
2018-02-23T12:04:46.986Z,13.48
2018-02-23T12:07:14.033Z,13.75
2018-02-23T12:09:40.953Z,13.70
2018-02-23T12:12:08.526Z,10.15
2018-02-23T12:14:35.771Z,11.65
2018-02-23T12:17:03.470Z,11.55
2018-02-23T12:19:31.042Z,13.00
2018-02-23T12:21:58.627Z,11.50
2018-02-23T12:24:25.637Z,13.50
2018-02-23T12:26:52.550Z,13.25
2018-02-23T12:29:19.398Z,12.95
2018-02-23T12:31:46.233Z,13.07
2018-02-23T12:34:13.278Z,11.18
2018-02-23T12:36:40.272Z,11.55
2018-02-23T12:39:07.867Z,13.10
2018-02-23T12:41:34.906Z,12.75
2018-02-23T12:44:01.760Z,14.25
2018-02-23T12:46:28.630Z,11.68
2018-02-23T12:48:55.494Z,13.10
2018-02-23T12:51:23.192Z,12.40
2018-02-23T12:53:50.138Z,12.05
2018-02-23T12:56:17.066Z,10.70
2018-02-23T12:58:44.031Z,12.70
2018-02-23T13:01:10.921Z,12.55
2018-02-23T13:03:37.749Z,11.60
2018-02-23T13:06:04.794Z,10.20
2018-02-23T13:08:32.436Z,10.75
2018-02-23T13:10:59.431Z,12.02
2018-02-23T13:13:26.846Z,13.57
2018-02-23T13:15:54.534Z,12.02
2018-02-23T13:18:21.569Z,13.25
2018-02-23T13:20:48.519Z,12.65
2018-02-23T13:23:15.350Z,12.27
2018-02-23T13:25:42.367Z,12.37
2018-02-23T13:28:15.429Z,12.20
2018-02-23T13:30:42.947Z,12.18
2018-02-23T13:33:09.999Z,11.88
2018-02-23T13:35:37.010Z,15.05
2018-02-23T13:38:03.865Z,13.50
2018-02-23T13:40:30.767Z,17.05
2018-02-23T13:42:57.642Z,15.43
2018-02-23T13:45:24.554Z,16.27
2018-02-23T13:47:51.686Z,14.13
2018-02-23T13:50:19.418Z,14.07
2018-02-23T13:52:46.471Z,13.80
2018-02-23T13:55:13.305Z,13.40
2018-02-23T13:57:40.520Z,12.68
2018-02-23T14:00:07.690Z,14.65
2018-02-23T14:02:34.770Z,14.20
2018-02-23T14:05:01.691Z,13.62
2018-02-23T14:07:32.142Z,12.85
2018-02-23T14:09:59.223Z,14.00
2018-02-23T14:12:26.179Z,14.48
2018-02-23T14:14:53.156Z,15.63
2018-02-23T14:17:20.151Z,16.55
2018-02-23T14:19:47.185Z,15.43
2018-02-23T14:22:14.223Z,15.57
2018-02-23T14:24:41.096Z,16.25
2018-02-23T14:27:10.806Z,16.12
2018-02-23T14:29:37.822Z,16.50
2018-02-23T14:32:04.896Z,16.10
2018-02-23T14:34:38.749Z,15.48
2018-02-23T14:37:07.877Z,14.95
2018-02-23T14:39:34.884Z,16.73
2018-02-23T14:42:01.935Z,15.90
2018-02-23T14:44:28.958Z,16.65
2018-02-23T14:46:56.030Z,17.02
2018-02-23T14:49:22.974Z,15.32
2018-02-23T14:51:49.927Z,15.50
2018-02-23T14:54:17.007Z,16.67
2018-02-23T14:56:44.035Z,19.27
2018-02-23T14:59:11.243Z,18.20
2018-02-23T15:01:39.083Z,18.05
2018-02-23T15:04:07.077Z,19.10
2018-02-23T15:06:35.132Z,20.30
2018-02-23T15:09:03.522Z,19.90
2018-02-23T15:11:30.627Z,21.00
2018-02-23T15:13:57.660Z,21.60
2018-02-23T15:16:24.651Z,21.27
2018-02-23T15:18:51.679Z,19.12
2018-02-23T15:21:18.626Z,21.35
2018-02-23T15:23:45.543Z,21.48
2018-02-23T15:26:12.647Z,19.83
2018-02-23T15:28:41.288Z,20.85
2018-02-23T15:31:22.479Z,20.10
2018-02-23T15:33:49.342Z,20.85
2018-02-23T15:36:17.873Z,20.90
2018-02-23T15:38:45.046Z,21.95
2018-02-23T15:41:19.682Z,21.52
2018-02-23T15:43:50.903Z,20.62
2018-02-23T15:46:18.518Z,21.60
2018-02-23T15:48:53.115Z,23.12
2018-02-23T15:54:18.076Z,23.65
2018-02-23T15:56:45.079Z,23.80
2018-02-23T15:59:11.994Z,24.30
2018-02-23T16:01:40.506Z,23.23
2018-02-23T16:04:08.143Z,21.42
2018-02-23T16:06:35.243Z,21.52
2018-02-23T16:09:03.117Z,23.38
2018-02-23T16:11:31.042Z,22.83
2018-02-23T16:13:58.283Z,24.12
2018-02-23T16:16:26.030Z,25.55
2018-02-23T16:18:53.023Z,22.60
2018-02-23T16:21:19.966Z,23.10
2018-02-23T16:23:47.743Z,22.27
2018-02-23T16:26:14.795Z,25.67
2018-02-23T16:28:43.382Z,24.95
2018-02-23T16:31:10.356Z,24.25
2018-02-23T16:33:37.297Z,23.25
2018-02-23T16:36:04.194Z,22.75
2018-02-23T16:38:32.074Z,24.98
2018-02-23T16:40:59.775Z,25.55
2018-02-23T16:43:27.879Z,26.15
2018-02-23T16:45:55.578Z,27.75
2018-02-23T16:48:22.515Z,29.52
2018-02-23T16:50:50.774Z,29.08
2018-02-23T16:53:19.728Z,32.35
2018-02-23T16:55:46.672Z,29.37
2018-02-23T16:58:13.619Z,33.95
2018-02-23T17:00:40.666Z,32.65
2018-02-23T17:03:09.443Z,30.42
2018-02-23T17:05:36.671Z,28.73
2018-02-23T17:08:03.636Z,31.45
2018-02-23T17:10:31.338Z,29.50
2018-02-23T17:12:58.415Z,30.08
2018-02-23T17:15:25.351Z,28.35
2018-02-23T17:17:53.043Z,27.80
2018-02-23T17:20:21.772Z,24.60
2018-02-23T17:22:48.753Z,28.60
2018-02-23T17:25:16.460Z,29.70
2018-02-23T17:27:43.355Z,28.90
2018-02-23T17:30:11.692Z,30.33
2018-02-23T17:32:39.146Z,32.28
2018-02-23T17:35:06.944Z,32.40
2018-02-23T17:37:34.683Z,32.38
2018-02-23T17:40:02.433Z,32.45
2018-02-23T17:42:29.351Z,32.75
2018-02-23T17:44:56.327Z,30.98
2018-02-23T17:47:23.324Z,31.20
2018-02-23T17:49:50.263Z,33.25
2018-02-23T17:52:17.259Z,32.55
2018-02-23T17:54:45.335Z,32.38
2018-02-23T17:57:12.235Z,34.75
2018-02-23T17:59:39.914Z,31.30
2018-02-23T18:02:07.695Z,30.65
2018-02-23T18:04:41.322Z,33.63
2018-02-23T18:07:08.316Z,32.03
2018-02-23T18:09:37.363Z,36.72
2018-02-23T18:12:04.355Z,35.05
2018-02-23T18:14:31.278Z,35.33
2018-02-23T18:17:00.084Z,34.45
2018-02-23T18:19:28.520Z,35.58
2018-02-23T18:21:55.605Z,31.83
2018-02-23T18:24:22.696Z,31.70
2018-02-23T18:26:50.961Z,35.85
2018-02-23T18:29:18.538Z,30.62
2018-02-23T18:31:45.459Z,36.92
2018-02-23T18:34:13.472Z,37.75
2018-02-23T18:36:41.560Z,36.05
2018-02-23T18:39:09.371Z,34.33
2018-02-23T18:41:37.194Z,37.13
2018-02-23T18:44:04.171Z,35.97
2018-02-23T18:46:31.203Z,32.72
2018-02-23T18:49:01.128Z,35.35
2018-02-23T18:51:28.697Z,33.75
2018-02-23T18:53:58.301Z,30.48
2018-02-23T18:56:25.288Z,34.28
2018-02-23T18:58:52.465Z,34.13
2018-02-23T19:01:21.000Z,29.50
2018-02-23T19:03:50.930Z,33.55
2018-02-23T19:06:17.945Z,34.78
2018-02-23T19:08:47.471Z,34.35
2018-02-23T19:11:15.212Z,33.08
2018-02-23T19:13:42.987Z,35.55
2018-02-23T19:16:10.739Z,33.92
2018-02-23T19:18:37.718Z,32.35
2018-02-23T19:21:04.654Z,34.88
2018-02-23T19:23:31.706Z,31.23
2018-02-23T19:25:58.567Z,35.50
2018-02-23T19:28:25.538Z,36.60
2018-02-23T19:30:52.413Z,36.35
2018-02-23T19:33:19.350Z,34.22
2018-02-23T19:35:46.412Z,33.85
2018-02-23T19:38:14.005Z,35.10
2018-02-23T19:40:40.970Z,31.73
2018-02-23T19:43:07.955Z,36.22
2018-02-23T19:45:35.812Z,36.65
2018-02-23T19:48:02.826Z,36.22
2018-02-23T19:50:29.858Z,35.97
2018-02-23T19:52:56.787Z,37.75
2018-02-23T19:55:23.682Z,37.80
2018-02-23T19:57:50.675Z,41.28
2018-02-23T20:00:17.666Z,35.33
2018-02-23T20:02:45.354Z,36.22
2018-02-23T20:05:12.198Z,36.25
2018-02-23T20:07:39.963Z,34.35
2018-02-23T20:10:06.946Z,36.75
2018-02-23T20:12:33.903Z,37.40
2018-02-23T20:15:01.813Z,38.70
2018-02-23T20:17:30.995Z,36.45
2018-02-23T20:19:58.698Z,35.50
2018-02-23T20:22:26.447Z,36.92
2018-02-23T20:24:53.349Z,37.53
2018-02-23T20:27:21.093Z,38.72
2018-02-23T20:29:48.014Z,37.45
2018-02-23T20:32:15.701Z,35.85
2018-02-23T20:34:42.841Z,37.35
2018-02-23T20:37:09.954Z,38.22
2018-02-23T20:39:36.834Z,36.03
2018-02-23T20:42:03.878Z,39.42
2018-02-23T20:44:30.866Z,36.88
2018-02-23T20:46:57.906Z,36.95
2018-02-23T20:49:25.662Z,36.97
2018-02-23T20:51:52.622Z,35.70
2018-02-23T20:54:19.610Z,38.97
2018-02-23T20:56:46.475Z,38.05
2018-02-23T20:59:13.437Z,37.42
2018-02-23T21:01:41.149Z,40.35
2018-02-23T21:04:08.904Z,38.70
2018-02-23T21:06:35.986Z,38.92
2018-02-23T21:09:02.943Z,38.88
2018-02-23T21:11:29.806Z,38.88
2018-02-23T21:13:56.662Z,39.03
2018-02-23T21:16:23.678Z,47.33
2018-02-23T21:18:50.613Z,46.92
2018-02-23T21:21:18.294Z,37.72
2018-02-23T21:23:45.286Z,40.97
2018-02-23T21:26:12.886Z,42.33
2018-02-23T21:28:39.834Z,44.50
2018-02-23T21:31:06.727Z,40.30
2018-02-23T21:33:33.655Z,44.17
2018-02-23T21:36:01.690Z,42.03
2018-02-23T21:38:28.742Z,45.35
2018-02-23T21:40:55.598Z,43.67
2018-02-23T21:43:22.559Z,45.70
2018-02-23T21:45:49.547Z,45.05
2018-02-23T21:48:16.468Z,44.40
2018-02-23T21:50:43.330Z,43.72
2018-02-23T21:53:11.249Z,43.90
2018-02-23T21:55:38.269Z,44.60
2018-02-23T21:58:05.298Z,49.60
2018-02-23T22:00:32.143Z,45.10
2018-02-23T22:02:59.950Z,47.10
2018-02-23T22:05:27.011Z,44.47
2018-02-23T22:07:54.159Z,49.30
2018-02-23T22:10:21.098Z,43.95
2018-02-23T22:12:48.103Z,48.80
2018-02-23T22:15:14.954Z,45.15
2018-02-23T22:17:42.676Z,45.00
2018-02-23T22:20:09.747Z,41.03
2018-02-23T22:22:36.894Z,43.65
2018-02-23T22:25:03.790Z,44.13
2018-02-23T22:27:31.551Z,44.67
2018-02-23T22:29:58.521Z,40.25
2018-02-23T22:32:26.186Z,40.85
2018-02-23T22:34:53.918Z,37.30
2018-02-23T22:37:20.930Z,39.92
2018-02-23T22:39:49.094Z,37.80
2018-02-23T22:42:16.782Z,39.35
2018-02-23T22:44:43.662Z,39.50
2018-02-23T22:47:11.579Z,40.78
2018-02-23T22:49:38.666Z,40.47
2018-02-23T22:52:05.645Z,39.08
2018-02-23T22:54:32.595Z,35.67
2018-02-23T22:56:59.504Z,37.90
2018-02-23T22:59:26.475Z,34.08
2018-02-23T23:01:54.098Z,36.10
2018-02-23T23:04:21.219Z,36.92
2018-02-23T23:06:48.902Z,38.88
2018-02-23T23:09:15.791Z,38.60
2018-02-23T23:11:42.618Z,38.38
2018-02-23T23:14:09.598Z,40.50
2018-02-23T23:16:36.616Z,38.38
2018-02-23T23:19:03.522Z,38.92
2018-02-23T23:21:30.355Z,40.35
2018-02-23T23:23:57.410Z,39.25
2018-02-23T23:26:24.382Z,39.80
2018-02-23T23:28:52.083Z,37.67
2018-02-23T23:31:19.750Z,40.90
2018-02-23T23:33:46.750Z,43.42
2018-02-23T23:36:13.666Z,40.95
2018-02-23T23:38:40.710Z,42.35
2018-02-23T23:41:07.655Z,43.17
2018-02-23T23:43:34.746Z,39.80
2018-02-23T23:46:01.681Z,40.75
2018-02-23T23:48:28.533Z,42.90
2018-02-23T23:50:55.518Z,43.92
2018-02-23T23:53:22.594Z,40.08
2018-02-23T23:55:49.671Z,44.70
2018-02-23T23:58:17.278Z,44.25
